createdAt,value
2022-12-29T00:05:04.875Z,10.2
2022-12-29T00:15:05.079Z,10.3
2022-12-29T00:25:05.970Z,10.4
2022-12-29T00:35:06.618Z,10.4
2022-12-29T00:45:06.878Z,10.2
2022-12-29T00:55:07.441Z,10
2022-12-29T01:05:08.196Z,10.1
2022-12-29T01:15:09.024Z,10.1
2022-12-29T01:25:10.109Z,10.2
2022-12-29T01:35:10.377Z,10.1
2022-12-29T01:45:10.542Z,10.2
2022-12-29T01:55:11.056Z,10.3
2022-12-29T02:05:11.435Z,10.5
2022-12-29T02:15:12.227Z,10.7
2022-12-29T02:25:12.822Z,10.9
2022-12-29T02:35:13.373Z,11
2022-12-29T02:45:14.201Z,11.3
2022-12-29T03:15:16.346Z,11.8
2022-12-29T03:25:16.483Z,11.9
2022-12-29T03:35:17.328Z,11.7
2022-12-29T03:45:18.454Z,11.7
2022-12-29T03:55:18.746Z,11.4
2022-12-29T04:05:19.300Z,11
2022-12-29T04:35:21.718Z,10.6
2022-12-29T04:45:22.235Z,10.8
2022-12-29T04:55:22.394Z,10.4
2022-12-29T05:05:23.297Z,9.7
2022-12-29T05:15:24.187Z,9.6
2022-12-29T05:25:24.823Z,9.6
2022-12-29T05:35:25.439Z,9.5
2022-12-29T05:45:25.760Z,9.5
2022-12-29T05:55:26.785Z,9.5
2022-12-29T06:05:27.912Z,9.5
2022-12-29T06:15:28.230Z,9.5
2022-12-29T06:25:28.410Z,9.4
2022-12-29T06:35:28.739Z,9.7
2022-12-29T06:45:29.531Z,9.9
2022-12-29T06:55:30.503Z,9.9
2022-12-29T07:05:31.567Z,9.9
2022-12-29T07:15:32.120Z,10
2022-12-29T07:25:32.292Z,10.1
2022-12-29T07:35:33.307Z,10.2
2022-12-29T07:45:33.553Z,10.3
2022-12-29T07:55:34.488Z,10.3
2022-12-29T08:05:34.561Z,10.5
2022-12-29T08:15:35.616Z,10.8
2022-12-29T08:25:35.990Z,11
2022-12-29T08:35:37.013Z,10.9
2022-12-29T08:45:37.734Z,11
2022-12-29T08:55:38.549Z,11
2022-12-29T09:05:39.533Z,11
2022-12-29T09:15:40.465Z,11
2022-12-29T09:25:40.660Z,11
2022-12-29T09:35:40.898Z,11.1
2022-12-29T09:45:41.992Z,11.3
2022-12-29T10:05:43.794Z,11.4
2022-12-29T10:15:44.047Z,11.3
2022-12-29T10:25:44.448Z,11.3
2022-12-29T10:35:45.441Z,11.3
2022-12-29T10:45:46.599Z,11.3
2022-12-29T10:55:47.450Z,11.4
2022-12-29T11:05:48.499Z,11.5
2022-12-29T11:15:48.954Z,11.6
2022-12-29T11:25:49.101Z,11.5
2022-12-29T11:35:49.354Z,11.5
2022-12-29T11:45:50.197Z,11.4
2022-12-29T11:55:50.674Z,11.2
2022-12-29T12:05:50.764Z,11.2
2022-12-29T12:15:56.052Z,11.3
2022-12-29T12:25:51.712Z,11.2
2022-12-29T12:35:52.730Z,11
2022-12-29T12:45:53.592Z,11.1
2022-12-29T12:55:53.813Z,11
2022-12-29T12:56:15.733Z,11
2022-12-29T13:06:00.091Z,11
2022-12-29T13:26:01.022Z,10.6
2022-12-29T13:36:01.825Z,10.8
2022-12-29T13:46:02.116Z,10.8
2022-12-29T13:56:02.898Z,10.9
2022-12-29T14:06:03.035Z,11
2022-12-29T14:16:03.760Z,11
2022-12-29T14:26:03.927Z,11
2022-12-29T14:36:04.499Z,10.9
2022-12-29T14:46:04.770Z,10.8
2022-12-29T14:56:05.389Z,10.8
2022-12-29T15:06:09.354Z,10.6
2022-12-29T15:26:06.793Z,10.3
2022-12-29T15:46:08.346Z,10
2022-12-29T15:56:08.680Z,10.2
2022-12-29T16:06:08.939Z,9.8
2022-12-29T16:16:09.907Z,9.9
2022-12-29T16:26:10.672Z,10.1
2022-12-29T16:46:11.397Z,10.1
2022-12-29T17:06:13.140Z,8.9
2022-12-29T17:16:13.946Z,8.7
2022-12-29T17:26:14.975Z,8.6
2022-12-29T17:46:16.762Z,8.4
2022-12-29T17:56:17.338Z,8.1
2022-12-29T18:06:17.740Z,8
2022-12-29T18:26:22.232Z,8
2022-12-29T18:36:19.302Z,8
2022-12-29T18:46:22.962Z,7.9
2022-12-29T18:56:20.176Z,7.8
2022-12-29T19:16:22.162Z,7.8
2022-12-29T19:26:22.319Z,7.7
2022-12-29T19:36:22.706Z,7.8
2022-12-29T19:46:23.650Z,7.7
2022-12-29T19:56:24.180Z,7.6
2022-12-29T20:06:24.719Z,7.7
2022-12-29T20:16:25.876Z,7.6
2022-12-29T20:36:26.587Z,7.6
2022-12-29T20:46:33.865Z,7.6
2022-12-29T20:56:27.655Z,7.7
2022-12-29T21:06:28.445Z,7.7
2022-12-29T21:16:29.464Z,7.7
2022-12-29T21:26:30.478Z,7.7
2022-12-29T21:36:31.154Z,7.6
2022-12-29T22:06:33.016Z,7.5
2022-12-29T22:16:33.785Z,7.5
2022-12-29T22:26:34.295Z,7.4
2022-12-29T22:36:35.280Z,7.4
2022-12-29T22:46:35.961Z,7.4
2022-12-29T22:56:36.400Z,7.3
2022-12-29T23:06:36.627Z,7.3
2022-12-29T23:26:37.553Z,7.2
2022-12-29T23:36:38.028Z,7.1
2022-12-29T23:46:38.452Z,7
2022-12-29T23:56:38.997Z,7
